Time;durP1;ratioP1;P1;durP2;ratioP2;P2;SDS_P1;SDS_P2;PMS_P1;PMS_P2;Temp;Humidity;BMP_temperature;BMP_pressure;BME280_temperature;BME280_humidity;BME280_pressure;Samples;Min_cycle;Max_cycle;Signal;HPM_P1;HPM_P2
2021/08/07 00:01:11;;;;;;;1.42;0.88;;;;;;;19.70;41.81;100140.47;3558094;40;20034;-73
2021/08/07 00:03:40;;;;;;;1.30;0.90;;;;;;;19.67;41.09;100133.44;3566080;40;20439;-74
2021/08/07 00:06:26;;;;;;;2.13;0.98;;;;;;;19.65;41.72;100137.47;3558105;40;20124;-71
2021/08/07 00:08:55;;;;;;;1.52;1.00;;;;;;;19.61;41.70;100120.38;3542107;40;20029;-74
2021/08/07 00:11:23;;;;;;;1.60;0.85;;;;;;;19.58;41.34;100131.91;3561472;40;20045;-72
2021/08/07 00:13:51;;;;;;;1.95;0.93;;;;;;;19.56;41.81;100125.72;3557263;40;20045;-72
2021/08/07 00:16:19;;;;;;;1.95;0.93;;;;;;;19.55;41.67;100126.78;3562177;40;20329;-70
2021/08/07 00:18:47;;;;;;;1.73;1.05;;;;;;;19.53;41.32;100126.97;3552493;40;20060;-72
2021/08/07 00:21:15;;;;;;;1.27;0.77;;;;;;;19.52;41.61;100133.59;3555657;40;20345;-73
2021/08/07 00:23:44;;;;;;;1.30;0.90;;;;;;;19.52;41.92;100128.03;3549883;40;20081;-71
2021/08/07 00:26:12;;;;;;;2.28;1.00;;;;;;;19.50;41.92;100129.28;3553464;40;20040;-73
2021/08/07 00:28:40;;;;;;;1.13;0.80;;;;;;;19.48;42.00;100132.28;3556102;40;20074;-72
2021/08/07 00:31:08;;;;;;;1.40;0.80;;;;;;;19.47;41.53;100127.78;3547581;40;20076;-72
2021/08/07 00:33:37;;;;;;;1.17;0.75;;;;;;;19.45;41.61;100124.34;3545269;40;20201;-74
2021/08/07 00:36:06;;;;;;;2.00;0.80;;;;;;;19.43;42.00;100137.56;3547119;40;20077;-72
2021/08/07 00:38:36;;;;;;;1.80;0.90;;;;;;;19.42;41.92;100121.16;3555144;40;20081;-71
2021/08/07 00:41:06;;;;;;;1.10;0.68;;;;;;;19.42;41.80;100119.25;3551766;40;20038;-72
2021/08/07 00:43:34;;;;;;;1.42;0.77;;;;;;;19.40;42.31;100117.72;3554919;40;20682;-71
2021/08/07 00:46:09;;;;;;;1.02;0.52;;;;;;;19.37;42.11;100107.91;3555918;40;20084;-73
2021/08/07 00:48:38;;;;;;;1.17;0.60;;;;;;;19.37;41.93;100115.34;3562262;40;20025;-74
2021/08/07 00:51:08;;;;;;;1.95;0.75;;;;;;;19.36;41.87;100106.19;3557527;40;20289;-71
2021/08/07 00:53:41;;;;;;;;;;;;;;;19.08;42.75;100098.00;3556023;40;20042;-72
2021/08/07 00:56:10;;;;;;;1.02;0.70;;;;;;;19.31;42.03;100097.66;3559675;40;19941;-72
2021/08/07 00:58:47;;;;;;;2.70;0.73;;;;;;;19.30;42.24;100101.47;3559898;40;20049;-73
2021/08/07 01:01:17;;;;;;;1.02;0.50;;;;;;;19.30;42.02;100103.41;3562070;40;20033;-75
2021/08/07 01:03:48;;;;;;;1.25;0.73;;;;;;;19.30;41.71;100098.69;3565837;40;20057;-74
2021/08/07 01:06:32;;;;;;;1.10;0.60;;;;;;;19.29;42.51;100102.53;3554245;40;20037;-73
2021/08/07 01:09:12;;;;;;;0.85;0.68;;;;;;;19.28;42.62;100100.81;3556988;40;20067;-71
2021/08/07 01:11:51;;;;;;;1.15;0.57;;;;;;;19.26;42.34;100100.19;3561536;40;20185;-73
2021/08/07 01:14:26;;;;;;;1.40;0.73;;;;;;;19.25;42.47;100104.03;3555421;40;20037;-73
2021/08/07 01:16:55;;;;;;;1.55;0.60;;;;;;;19.24;41.81;100102.31;3565059;40;20151;-72
2021/08/07 01:19:26;;;;;;;1.15;0.60;;;;;;;19.25;41.83;100092.94;3518745;40;20478;-71
2021/08/07 01:24:50;;;;;;;2.88;0.80;;;;;;;19.24;41.96;100093.13;3568319;40;20055;-72
2021/08/07 01:27:26;;;;;;;1.17;0.80;;;;;;;19.25;42.62;100092.94;3566145;40;20400;-73
2021/08/07 01:30:06;;;;;;;0.77;0.70;;;;;;;19.21;42.40;100088.84;3569517;40;20045;-73
2021/08/07 01:32:37;;;;;;;1.85;0.52;;;;;;;19.24;41.89;100096.78;3570133;40;20053;-73
2021/08/07 01:35:08;;;;;;;2.30;0.70;;;;;;;19.21;42.21;100097.16;3572417;40;20118;-73
2021/08/07 01:37:42;;;;;;;1.52;0.70;;;;;;;19.20;41.96;100098.22;3573573;40;20078;-72
2021/08/07 01:40:18;;;;;;;2.15;0.90;;;;;;;19.22;41.94;100104.44;3558330;40;20505;-73
2021/08/07 01:42:56;;;;;;;1.23;0.70;;;;;;;19.22;41.77;100106.34;3562072;40;20033;-73
2021/08/07 01:45:28;;;;;;;1.00;0.68;;;;;;;19.19;42.43;100105.69;3570463;40;20463;-72
2021/08/07 01:48:03;;;;;;;2.78;0.80;;;;;;;19.22;42.63;100098.88;3561325;40;20045;-72
2021/08/07 01:50:47;;;;;;;3.45;0.90;;;;;;;19.20;42.53;100096.31;3551562;40;20049;-72
2021/08/07 01:53:23;;;;;;;1.40;0.60;;;;;;;19.22;42.60;100087.78;3560494;40;20347;-70
2021/08/07 01:56:01;;;;;;;1.52;0.68;;;;;;;19.20;42.07;100082.44;3539672;40;20159;-73
2021/08/07 01:58:37;;;;;;;1.70;0.80;;;;;;;19.20;41.91;100090.78;3535497;40;20325;-72
2021/08/07 02:01:08;;;;;;;1.67;0.80;;;;;;;19.18;42.45;100090.13;3533425;40;20058;-72
2021/08/07 02:03:41;;;;;;;1.30;0.77;;;;;;;19.18;42.39;100089.28;3532305;40;20335;-72
2021/08/07 02:06:10;;;;;;;1.63;0.90;;;;;;;19.16;41.87;100088.63;3530216;40;20062;-72
2021/08/07 02:08:41;;;;;;;1.50;0.70;;;;;;;19.16;42.17;100091.41;3527736;40;20110;-72
2021/08/07 02:11:16;;;;;;;1.63;0.90;;;;;;;19.14;42.01;100086.06;3518163;40;20055;-72
2021/08/07 02:13:48;;;;;;;1.38;0.60;;;;;;;19.14;41.81;100087.97;3517805;40;20051;-72
2021/08/07 02:16:23;;;;;;;1.20;0.80;;;;;;;19.11;41.90;100086.47;3515910;40;20139;-73
2021/08/07 02:18:52;;;;;;;1.83;0.80;;;;;;;19.10;42.34;100087.53;3519790;40;20047;-72
2021/08/07 02:21:26;;;;;;;2.10;1.00;;;;;;;19.09;42.33;100082.22;3515936;40;20471;-72
2021/08/07 02:23:55;;;;;;;0.95;0.63;;;;;;;19.07;41.88;100081.56;3512791;40;20063;-72
2021/08/07 02:26:26;;;;;;;1.48;0.73;;;;;;;19.07;41.79;100082.41;3534311;40;20433;-72
2021/08/07 02:29:05;;;;;;;1.48;0.70;;;;;;;19.07;42.29;100078.78;3515757;40;20460;-71
2021/08/07 02:31:42;;;;;;;1.40;0.90;;;;;;;19.03;42.40;100080.25;3523585;40;21414;-71
2021/08/07 02:34:12;;;;;;;1.38;0.80;;;;;;;19.01;41.81;100069.38;3530392;40;20141;-72
2021/08/07 02:36:41;;;;;;;1.25;0.75;;;;;;;19.00;42.43;100066.81;3536652;40;20149;-73
2021/08/07 02:39:14;;;;;;;2.33;1.00;;;;;;;18.97;42.07;100070.84;3539091;40;20794;-72
2021/08/07 02:41:43;;;;;;;1.77;0.80;;;;;;;18.97;42.37;100068.06;3544450;40;20116;-72
2021/08/07 02:44:16;;;;;;;2.20;0.88;;;;;;;18.96;42.38;100063.59;3553399;40;20565;-73
2021/08/07 02:46:47;;;;;;;2.75;0.88;;;;;;;18.93;42.57;100065.94;3544288;40;20360;-73
2021/08/07 02:49:16;;;;;;;1.05;0.80;;;;;;;18.92;42.53;100059.53;3552111;40;20046;-73
2021/08/07 02:51:44;;;;;;;1.30;0.90;;;;;;;18.91;42.31;100055.06;3553016;40;20377;-73
2021/08/07 02:54:12;;;;;;;2.00;1.10;;;;;;;18.90;41.96;100056.09;3554984;40;20076;-73
2021/08/07 02:56:41;;;;;;;2.05;1.27;;;;;;;18.90;42.04;100060.78;3548695;40;20104;-72
2021/08/07 02:59:09;;;;;;;1.98;0.90;;;;;;;18.87;42.51;100050.97;3560366;40;20651;-73
2021/08/07 03:01:44;;;;;;;1.67;0.90;;;;;;;18.89;42.91;100062.72;3572795;40;20059;-73
2021/08/07 03:04:12;;;;;;;1.30;0.90;;;;;;;18.85;42.40;100043.94;3565066;40;20110;-72
2021/08/07 03:06:41;;;;;;;1.73;0.93;;;;;;;18.86;42.57;100048.41;3564645;40;21327;-72
2021/08/07 03:09:10;;;;;;;1.42;0.90;;;;;;;18.84;42.67;100050.53;3563989;40;20185;-73
2021/08/07 03:11:43;;;;;;;1.35;0.93;;;;;;;18.83;42.67;100040.50;3565163;40;20273;-73
2021/08/07 03:14:11;;;;;;;1.88;0.95;;;;;;;18.83;42.12;100044.16;3543348;40;20317;-73
2021/08/07 03:16:40;;;;;;;2.92;1.00;;;;;;;18.83;42.16;100048.81;3534339;40;20529;-73
2021/08/07 03:19:14;;;;;;;2.40;1.00;;;;;;;18.83;42.53;100046.06;3544442;40;20159;-73
2021/08/07 03:21:44;;;;;;;1.73;1.00;;;;;;;18.79;42.73;100046.47;3542728;40;20494;-73
2021/08/07 03:24:13;;;;;;;2.58;1.20;;;;;;;18.79;42.57;100054.78;3532886;40;20099;-73
2021/08/07 03:26:47;;;;;;;1.50;0.90;;;;;;;18.78;42.72;100050.28;3539760;40;20121;-73
2021/08/07 03:29:18;;;;;;;1.52;1.00;;;;;;;18.78;42.36;100044.75;3539369;40;20049;-72
2021/08/07 03:31:48;;;;;;;1.77;1.00;;;;;;;18.78;42.46;100052.16;3533085;40;20038;-73
2021/08/07 03:34:22;;;;;;;1.67;0.90;;;;;;;18.77;42.66;100056.03;3533685;40;20086;-72
2021/08/07 03:36:49;;;;;;;1.85;1.00;;;;;;;18.76;42.10;100062.63;3534325;40;20116;-73
2021/08/07 03:39:18;;;;;;;2.40;0.98;;;;;;;18.76;42.69;100052.41;3539692;40;20085;-72
2021/08/07 03:41:47;;;;;;;3.05;1.40;;;;;;;18.74;42.45;100040.66;3533158;40;20054;-73
2021/08/07 03:44:16;;;;;;;2.53;1.13;;;;;;;18.74;42.49;100045.34;3530861;40;20057;-72
2021/08/07 03:46:45;;;;;;;2.42;1.30;;;;;;;18.72;42.67;100039.13;3552130;40;20060;-72
2021/08/07 03:49:14;;;;;;;2.47;1.20;;;;;;;18.71;42.33;100034.66;3551591;40;20123;-72
2021/08/07 03:51:46;;;;;;;2.95;1.27;;;;;;;18.72;42.86;100039.13;3549931;40;20042;-72
2021/08/07 03:54:17;;;;;;;3.80;1.77;;;;;;;18.65;42.28;100030.81;3551189;40;20066;-72
2021/08/07 03:56:45;;;;;;;4.40;1.70;;;;;;;18.66;42.72;100026.13;3559746;40;20056;-72
2021/08/07 03:59:13;;;;;;;2.55;1.40;;;;;;;18.64;42.71;100023.53;3573935;40;20056;-73
2021/08/07 04:01:41;;;;;;;2.92;1.25;;;;;;;18.62;42.36;100017.34;3571337;40;20360;-72
2021/08/07 04:04:14;;;;;;;2.50;1.33;;;;;;;18.61;42.86;100020.31;3572067;40;20049;-72
2021/08/07 04:06:44;;;;;;;2.92;1.35;;;;;;;18.60;42.39;100026.94;3564997;40;20119;-72
2021/08/07 04:09:20;;;;;;;6.35;1.95;;;;;;;18.61;42.82;100020.31;3563789;40;20078;-73
2021/08/07 04:11:49;;;;;;;3.47;1.30;;;;;;;18.58;42.31;100026.28;3564635;40;20090;-72
2021/08/07 04:14:17;;;;;;;3.22;1.58;;;;;;;18.57;43.02;100025.44;3572131;40;20416;-72
2021/08/07 04:16:46;;;;;;;2.95;1.50;;;;;;;18.55;42.50;100024.78;3565097;40;20150;-72
2021/08/07 04:19:21;;;;;;;4.20;1.40;;;;;;;18.55;42.92;100012.84;3508107;40;20062;-72
2021/08/07 04:21:55;;;;;;;2.50;1.50;;;;;;;18.53;42.49;100010.28;3569906;40;20300;-72
2021/08/07 04:24:29;;;;;;;;;;;;;;;18.25;43.46;100002.03;3573119;40;20053;-72
2021/08/07 04:26:56;;;;;;;1.98;1.05;;;;;;;18.47;43.04;100004.69;3571273;40;19940;-72
2021/08/07 04:29:24;;;;;;;1.95;1.10;;;;;;;18.49;42.93;100003.44;3563646;40;20524;-72
2021/08/07 04:31:56;;;;;;;3.83;1.73;;;;;;;18.47;43.13;100004.69;3564100;40;20075;-72
2021/08/07 04:34:24;;;;;;;2.35;1.20;;;;;;;18.45;42.88;100015.97;3562343;40;20360;-72
2021/08/07 04:36:53;;;;;;;2.28;1.10;;;;;;;18.42;43.12;100016.41;3561609;40;20126;-71
2021/08/07 04:39:23;;;;;;;2.72;1.20;;;;;;;18.42;42.76;100008.94;3563704;40;20323;-72
2021/08/07 04:41:56;;;;;;;2.75;1.30;;;;;;;18.42;43.22;100002.56;3571632;40;20086;-71
2021/08/07 04:44:24;;;;;;;2.80;1.20;;;;;;;18.39;42.83;100009.34;3536163;40;20108;-71
2021/08/07 04:46:52;;;;;;;3.03;1.30;;;;;;;18.39;43.41;100023.19;3565065;40;20083;-72
2021/08/07 04:49:20;;;;;;;2.58;1.30;;;;;;;18.38;43.28;100018.72;3562711;40;20056;-72
2021/08/07 04:51:48;;;;;;;3.15;1.58;;;;;;;18.38;43.10;100017.84;3561173;40;20049;-71
2021/08/07 04:54:16;;;;;;;2.70;1.30;;;;;;;18.37;42.90;100008.69;3561570;40;20057;-72
2021/08/07 04:56:44;;;;;;;2.33;1.23;;;;;;;18.37;43.64;100016.13;3549893;40;20411;-71
2021/08/07 04:59:13;;;;;;;2.45;1.30;;;;;;;18.39;43.40;100005.72;3542926;40;20062;-72
2021/08/07 05:01:41;;;;;;;3.80;1.30;;;;;;;18.37;43.27;100010.59;3549139;40;20049;-73
2021/08/07 05:04:12;;;;;;;3.22;1.40;;;;;;;18.36;43.21;100006.97;3542467;40;20325;-72
2021/08/07 05:06:44;;;;;;;1.70;0.93;;;;;;;18.37;43.68;100013.38;3533423;40;20061;-72
2021/08/07 05:09:12;;;;;;;2.05;1.10;;;;;;;18.36;43.43;100015.28;3520588;40;20137;-71
2021/08/07 05:11:56;;;;;;;2.55;1.10;;;;;;;18.36;43.18;100015.28;3513031;40;20062;-72
2021/08/07 05:14:26;;;;;;;3.33;1.20;;;;;;;18.39;43.66;100008.50;3531822;40;20136;-72
2021/08/07 05:16:54;;;;;;;3.58;1.02;;;;;;;18.37;43.21;100005.06;3533293;40;20076;-72
2021/08/07 05:19:22;;;;;;;2.72;1.10;;;;;;;18.37;43.70;100011.47;3536856;40;20046;-72
2021/08/07 05:21:50;;;;;;;2.53;1.27;;;;;;;18.37;43.98;100014.22;3524709;40;21732;-72
2021/08/07 05:24:18;;;;;;;2.17;1.15;;;;;;;18.39;43.60;100011.25;3522296;40;20062;-72
2021/08/07 05:26:48;;;;;;;3.30;1.20;;;;;;;18.39;43.38;100002.94;3518685;40;20043;-72
2021/08/07 05:29:16;;;;;;;2.75;1.05;;;;;;;18.39;43.79;100012.13;3530328;40;20660;-72
2021/08/07 05:31:48;;;;;;;1.73;1.02;;;;;;;18.41;43.32;100007.25;3520076;40;20066;-71
2021/08/07 05:34:16;;;;;;;2.58;1.10;;;;;;;18.40;43.60;100005.53;3523313;40;20070;-73
2021/08/07 05:36:44;;;;;;;2.28;1.20;;;;;;;18.41;43.87;99998.06;3502136;41;20647;-70
2021/08/07 05:39:12;;;;;;;2.30;1.13;;;;;;;18.41;43.88;99998.94;3473174;41;20070;-72
2021/08/07 05:41:40;;;;;;;1.98;0.90;;;;;;;18.43;43.50;100004.28;3470094;41;20664;-71
2021/08/07 05:44:09;;;;;;;1.60;1.10;;;;;;;18.42;43.49;99997.88;3483537;41;20084;-72
2021/08/07 05:46:37;;;;;;;2.60;1.00;;;;;;;18.43;44.05;99998.72;3479397;41;20062;-72
2021/08/07 05:49:07;;;;;;;1.95;1.30;;;;;;;18.46;43.39;100001.06;3482426;41;20062;-72
2021/08/07 05:51:35;;;;;;;2.45;1.05;;;;;;;18.45;43.50;99994.69;3479516;41;20066;-72
2021/08/07 05:54:05;;;;;;;2.38;1.10;;;;;;;18.48;43.43;99998.09;3472943;41;20048;-72
2021/08/07 05:56:34;;;;;;;2.22;1.02;;;;;;;18.50;43.96;99998.75;3484983;41;20250;-72
2021/08/07 05:59:02;;;;;;;2.05;1.10;;;;;;;18.50;43.45;99993.22;3492090;41;20172;-72
2021/08/07 06:01:30;;;;;;;2.67;0.90;;;;;;;18.53;43.96;100001.09;3495386;41;20042;-72
2021/08/07 06:03:58;;;;;;;1.98;0.88;;;;;;;18.54;43.97;100000.03;3504303;40;20058;-72
2021/08/07 06:06:28;;;;;;;2.70;1.20;;;;;;;18.57;43.52;99997.75;3522097;40;20058;-72
2021/08/07 06:08:56;;;;;;;1.95;0.90;;;;;;;18.56;44.06;99998.78;3509380;40;20424;-72
2021/08/07 06:11:25;;;;;;;2.47;1.08;;;;;;;18.59;43.50;99992.00;3516033;40;20043;-72
2021/08/07 06:13:53;;;;;;;4.38;1.10;;;;;;;18.60;43.83;99990.94;3530734;40;20050;-72
2021/08/07 06:16:24;;;;;;;2.50;1.00;;;;;;;18.62;44.11;99999.88;3540214;40;20061;-72
2021/08/07 06:18:52;;;;;;;2.50;0.90;;;;;;;18.64;43.46;99995.84;3551402;40;20128;-72
2021/08/07 06:21:21;;;;;;;2.28;0.90;;;;;;;18.65;43.69;100000.34;3544383;40;20054;-72
2021/08/07 06:23:50;;;;;;;2.25;1.00;;;;;;;18.69;43.48;100006.31;3544500;40;20057;-72
2021/08/07 06:26:18;;;;;;;1.85;0.90;;;;;;;18.68;44.01;100007.38;3551778;40;20132;-72
2021/08/07 06:28:46;;;;;;;1.50;0.90;;;;;;;18.70;43.74;99999.69;3540143;40;20039;-72
2021/08/07 06:31:14;;;;;;;1.67;1.10;;;;;;;18.69;43.61;99998.84;3541707;40;20054;-71
2021/08/07 06:33:43;;;;;;;1.75;0.98;;;;;;;18.71;43.57;99996.72;3545947;40;20088;-72
2021/08/07 06:36:11;;;;;;;1.60;1.00;;;;;;;18.72;43.99;100000.34;3568047;40;20120;-72
2021/08/07 06:38:39;;;;;;;2.38;1.00;;;;;;;18.73;44.03;100002.94;3562969;40;20037;-72
2021/08/07 06:41:08;;;;;;;2.53;1.05;;;;;;;18.75;43.85;100006.34;3557824;40;20061;-72
2021/08/07 06:43:53;;;;;;;2.45;1.15;;;;;;;18.74;43.72;100003.78;3569056;40;20137;-72
2021/08/07 06:46:32;;;;;;;2.78;1.08;;;;;;;18.75;44.04;100003.59;3566075;40;20052;-72
2021/08/07 06:49:00;;;;;;;2.08;0.85;;;;;;;18.76;43.93;100005.28;3558968;40;20053;-72
2021/08/07 06:51:28;;;;;;;2.38;1.17;;;;;;;18.77;44.00;100006.16;3563240;40;20045;-72
2021/08/07 06:53:56;;;;;;;4.40;1.45;;;;;;;18.78;43.71;100008.72;3564418;40;20078;-72
2021/08/07 06:56:26;;;;;;;3.00;1.20;;;;;;;18.79;43.96;100007.66;3572100;40;20056;-72
2021/08/07 06:58:55;;;;;;;3.92;1.20;;;;;;;18.78;44.02;100003.19;3569038;40;20049;-72
2021/08/07 07:01:23;;;;;;;5.32;1.23;;;;;;;18.80;43.55;100009.38;3563528;40;20085;-71
2021/08/07 07:03:52;;;;;;;3.10;1.08;;;;;;;18.80;43.44;100003.84;3563932;40;20044;-72
2021/08/07 07:06:21;;;;;;;2.78;1.20;;;;;;;18.82;43.46;99995.31;3568553;40;20056;-72
2021/08/07 07:08:51;;;;;;;2.97;1.17;;;;;;;18.83;43.68;99999.81;3544568;40;20054;-72
2021/08/07 07:11:20;;;;;;;2.45;1.20;;;;;;;18.84;43.60;100001.53;3578444;40;20500;-70
2021/08/07 07:13:49;;;;;;;3.05;1.10;;;;;;;18.87;43.59;99992.78;3571538;40;20571;-71
2021/08/07 07:16:18;;;;;;;2.20;1.23;;;;;;;18.87;44.26;100000.22;3582814;40;20060;-72
2021/08/07 07:18:46;;;;;;;1.60;0.75;;;;;;;18.89;43.77;99993.44;3570051;40;20052;-71
2021/08/07 07:21:14;;;;;;;2.92;1.08;;;;;;;18.90;43.75;99985.97;3578254;40;20054;-75
2021/08/07 07:23:43;;;;;;;1.75;0.98;;;;;;;18.92;43.80;99981.94;3567162;40;20053;-75
2021/08/07 07:26:10;;;;;;;2.53;0.98;;;;;;;18.94;43.76;99988.09;3567422;40;20383;-75
2021/08/07 07:28:39;;;;;;;2.83;1.00;;;;;;;18.97;44.32;99992.38;3575189;40;20204;-76
2021/08/07 07:31:08;;;;;;;1.75;1.00;;;;;;;19.01;43.71;99989.00;3567515;40;20042;-74
2021/08/07 07:33:37;;;;;;;2.33;1.10;;;;;;;19.00;44.24;99984.53;3558138;40;20112;-75
2021/08/07 07:36:05;;;;;;;2.22;1.05;;;;;;;19.03;43.94;99988.78;3557343;40;20042;-74
2021/08/07 07:38:34;;;;;;;2.72;1.30;;;;;;;19.05;43.68;99992.19;3557727;40;20072;-74
2021/08/07 07:41:02;;;;;;;1.65;1.08;;;;;;;19.07;43.74;99990.94;3562570;40;20305;-72
2021/08/07 07:43:30;;;;;;;1.70;0.90;;;;;;;19.10;44.21;99984.13;3545364;40;20049;-71
2021/08/07 07:45:59;;;;;;;2.58;1.10;;;;;;;19.11;43.83;99985.81;3558482;40;20139;-72
2021/08/07 07:48:28;;;;;;;2.17;1.13;;;;;;;19.16;43.83;99983.28;3563636;40;20059;-73
2021/08/07 07:50:56;;;;;;;2.42;1.00;;;;;;;19.17;43.77;99985.00;3545695;40;20345;-72
2021/08/07 07:53:24;;;;;;;2.50;1.10;;;;;;;19.20;44.36;99990.97;3552789;40;20048;-72
2021/08/07 07:55:52;;;;;;;2.28;1.00;;;;;;;19.22;44.38;99981.56;3564901;40;20481;-72
2021/08/07 07:58:20;;;;;;;2.70;0.93;;;;;;;19.25;43.89;99995.03;3557371;40;20057;-72
2021/08/07 08:00:48;;;;;;;2.38;1.02;;;;;;;19.27;44.26;99993.72;3557174;40;20168;-72
2021/08/07 08:03:18;;;;;;;2.42;1.02;;;;;;;19.30;44.43;99992.47;3559580;40;20089;-72
2021/08/07 08:05:48;;;;;;;1.50;0.98;;;;;;;19.36;44.50;99995.25;3556323;40;20464;-72
2021/08/07 08:08:16;;;;;;;2.60;1.05;;;;;;;19.39;44.53;99993.97;3551662;40;20591;-72
2021/08/07 08:10:44;;;;;;;2.72;1.30;;;;;;;19.44;44.57;99988.66;3566313;40;20528;-72
2021/08/07 08:13:20;;;;;;;2.65;1.30;;;;;;;19.50;44.76;99987.81;3554720;40;20046;-72
2021/08/07 08:15:49;;;;;;;2.88;1.17;;;;;;;19.57;44.39;99980.38;3551795;40;20146;-72
2021/08/07 08:18:19;;;;;;;1.65;0.90;;;;;;;19.65;44.36;99984.88;3555814;40;20033;-74
2021/08/07 08:20:48;;;;;;;3.47;1.15;;;;;;;19.74;44.52;99981.69;3575214;40;20052;-73
2021/08/07 08:23:17;;;;;;;3.30;1.02;;;;;;;19.82;44.26;99980.59;3577602;40;20073;-74
2021/08/07 08:25:46;;;;;;;3.17;1.10;;;;;;;19.90;44.36;99978.47;3574011;40;20065;-76
2021/08/07 08:28:14;;;;;;;2.70;1.10;;;;;;;20.02;44.16;99963.91;3561308;40;20053;-74
2021/08/07 08:30:42;;;;;;;3.25;1.13;;;;;;;20.12;44.35;99965.19;3555082;40;20113;-75
2021/08/07 08:33:12;;;;;;;3.25;1.15;;;;;;;20.23;44.63;99953.47;3565214;40;20073;-74
2021/08/07 08:35:42;;;;;;;2.88;1.20;;;;;;;20.36;43.88;99969.22;3558969;40;20460;-74
2021/08/07 08:38:13;;;;;;;3.20;1.10;;;;;;;20.47;44.09;99956.59;3561973;40;20152;-72
2021/08/07 08:40:42;;;;;;;2.03;1.15;;;;;;;20.55;43.85;99951.63;3558015;40;20337;-72
2021/08/07 08:43:12;;;;;;;3.28;1.10;;;;;;;20.66;43.51;99944.56;3559072;40;20053;-72
2021/08/07 08:45:40;;;;;;;1.60;1.02;;;;;;;20.75;43.42;99943.19;3566801;40;20099;-72
2021/08/07 08:48:08;;;;;;;1.27;0.95;;;;;;;20.85;43.79;99938.03;3556998;40;20100;-72
2021/08/07 08:50:36;;;;;;;1.90;0.90;;;;;;;20.97;43.54;99932.66;3566308;40;20056;-71
2021/08/07 08:53:06;;;;;;;3.63;1.23;;;;;;;21.08;43.12;99940.28;3556727;40;20064;-72
2021/08/07 08:55:37;;;;;;;3.05;1.20;;;;;;;21.20;43.01;99932.06;3557148;40;20089;-72
2021/08/07 08:58:05;;;;;;;3.15;1.08;;;;;;;21.29;42.95;99939.94;3561948;40;20382;-71
2021/08/07 09:00:33;;;;;;;2.40;1.10;;;;;;;21.39;42.31;99931.09;3574035;40;20060;-72
2021/08/07 09:03:02;;;;;;;4.40;1.27;;;;;;;21.49;42.27;99941.72;3573019;40;20045;-72
2021/08/07 09:05:31;;;;;;;2.53;1.20;;;;;;;21.57;42.26;99935.91;3570164;40;20041;-72
2021/08/07 09:07:59;;;;;;;2.75;1.10;;;;;;;21.65;41.61;99930.06;3572446;40;20050;-71
2021/08/07 09:10:29;;;;;;;2.17;1.08;;;;;;;21.73;41.08;99938.13;3582678;40;20330;-72
2021/08/07 09:13:03;;;;;;;;;;;;;;;21.47;41.64;99936.38;3579786;40;20049;-73
2021/08/07 09:15:36;;;;;;;2.60;1.07;;;;;;;21.76;40.81;99926.50;3584866;40;19933;-73
2021/08/07 09:18:20;;;;;;;2.80;1.15;;;;;;;21.83;40.34;99938.44;3572197;40;20044;-73
2021/08/07 09:20:55;;;;;;;3.22;1.10;;;;;;;21.80;40.14;99936.97;3585583;40;20098;-71
2021/08/07 09:23:32;;;;;;;2.47;1.15;;;;;;;21.82;39.53;99933.94;3583680;40;20308;-73
2021/08/07 09:26:13;;;;;;;3.00;1.20;;;;;;;21.79;39.43;99935.28;3570578;40;20135;-77
2021/08/07 09:28:48;;;;;;;3.13;1.17;;;;;;;21.77;39.74;99937.44;3575645;40;20049;-75
2021/08/07 09:31:20;;;;;;;2.35;1.10;;;;;;;21.73;39.85;99933.41;3577919;40;20059;-74
2021/08/07 09:34:18;;;;;;;2.67;1.25;;;;;;;21.69;39.57;99926.59;3575511;40;20068;-74
2021/08/07 09:36:56;;;;;;;3.47;1.40;;;;;;;21.69;39.99;99926.59;3578834;40;20064;-74
2021/08/07 09:39:37;;;;;;;1.65;1.08;;;;;;;21.70;39.46;99933.00;3575781;40;20375;-74
2021/08/07 09:42:08;;;;;;;3.30;1.10;;;;;;;21.66;39.87;99927.03;3575585;40;20047;-75
2021/08/07 09:44:39;;;;;;;2.40;1.20;;;;;;;21.67;40.00;99928.72;3565315;40;20061;-74
2021/08/07 09:47:09;;;;;;;2.00;1.00;;;;;;;21.67;40.23;99930.66;3573821;40;20049;-73
2021/08/07 09:49:40;;;;;;;2.60;1.10;;;;;;;21.69;39.87;99911.81;3574978;40;20431;-68
2021/08/07 09:52:09;;;;;;;2.42;1.00;;;;;;;21.70;40.39;99910.72;3567395;40;20045;-66
2021/08/07 09:54:39;;;;;;;3.58;1.10;;;;;;;21.74;40.17;99918.38;3573543;40;20439;-66
2021/08/07 09:57:10;;;;;;;1.95;1.00;;;;;;;21.78;40.01;99907.66;3569676;40;20215;-65
2021/08/07 09:59:48;;;;;;;2.15;0.98;;;;;;;21.85;39.15;99914.00;3568338;40;20053;-67
2021/08/07 10:02:21;;;;;;;3.45;1.15;;;;;;;21.88;39.74;99924.69;3568205;40;20061;-66
2021/08/07 10:04:52;;;;;;;3.20;1.00;;;;;;;21.92;39.36;99925.94;3564554;40;20076;-67
2021/08/07 10:07:20;;;;;;;2.60;1.00;;;;;;;21.97;39.18;99928.91;3565878;40;20138;-66
2021/08/07 10:10:22;;;;;;;2.53;1.10;;;;;;;22.03;38.73;99924.31;3567505;40;20044;-67
2021/08/07 10:12:58;;;;;;;2.28;0.90;;;;;;;22.02;39.01;99917.91;3564747;40;20041;-69
2021/08/07 10:15:39;;;;;;;2.83;1.02;;;;;;;22.08;39.22;99911.41;3565944;40;20352;-66
2021/08/07 10:18:09;;;;;;;2.50;1.05;;;;;;;22.08;38.84;99910.56;3566433;40;20066;-67
2021/08/07 10:20:43;;;;;;;2.72;1.15;;;;;;;22.11;38.92;99893.38;3566697;40;20052;-67
2021/08/07 10:23:12;;;;;;;1.85;0.90;;;;;;;22.14;39.20;99901.28;3573295;40;20319;-66
2021/08/07 10:25:44;;;;;;;2.08;1.10;;;;;;;22.19;38.22;99898.66;3576462;40;20088;-67
2021/08/07 10:28:16;;;;;;;2.95;1.05;;;;;;;22.22;38.06;99887.09;3583141;40;20428;-68
2021/08/07 10:30:46;;;;;;;2.42;0.90;;;;;;;22.24;37.83;99890.47;3576189;40;20129;-68
2021/08/07 10:33:16;;;;;;;3.38;1.20;;;;;;;22.26;38.03;99879.97;3575417;40;20055;-68
2021/08/07 10:35:46;;;;;;;3.33;1.20;;;;;;;22.28;37.94;99879.72;3568207;40;20050;-69
2021/08/07 10:38:15;;;;;;;2.20;1.00;;;;;;;22.30;37.86;99867.28;3573322;40;20037;-68
2021/08/07 10:40:44;;;;;;;1.92;1.00;;;;;;;22.35;38.17;99873.00;3585232;40;20080;-68
2021/08/07 10:43:13;;;;;;;2.60;1.30;;;;;;;22.41;37.92;99877.63;3574918;40;20041;-68
2021/08/07 10:45:42;;;;;;;2.67;1.10;;;;;;;22.45;37.56;99850.16;3569869;40;20162;-66
2021/08/07 10:48:35;;;;;;;2.22;0.88;;;;;;;22.53;37.49;99845.09;3569213;40;20135;-68
2021/08/07 10:51:35;;;;;;;2.20;0.90;;;;;;;22.59;37.52;99846.09;3572963;40;20052;-68
2021/08/07 10:54:06;;;;;;;1.95;1.10;;;;;;;22.66;37.07;99848.78;3577205;40;20420;-68
2021/08/07 10:56:36;;;;;;;2.90;1.00;;;;;;;22.72;36.81;99853.44;3578460;40;20075;-68
2021/08/07 10:59:22;;;;;;;3.55;1.15;;;;;;;22.75;36.09;99847.34;3578239;40;20040;-68
2021/08/07 11:01:52;;;;;;;2.90;1.00;;;;;;;22.76;36.34;99854.63;3573693;40;20045;-68
2021/08/07 11:04:26;;;;;;;2.80;1.13;;;;;;;22.80;36.10;99850.31;3578533;40;20049;-67
2021/08/07 11:07:08;;;;;;;2.40;1.00;;;;;;;22.78;34.65;99856.13;3579120;40;20293;-67
2021/08/07 11:09:39;;;;;;;2.07;1.10;;;;;;;22.73;35.40;99855.94;3578084;40;20388;-68
2021/08/07 11:12:28;;;;;;;2.15;0.93;;;;;;;22.70;34.87;99869.53;3574936;40;20361;-68
2021/08/07 11:14:58;;;;;;;2.80;1.10;;;;;;;22.67;35.44;99868.06;3577284;40;20062;-69
2021/08/07 11:17:38;;;;;;;2.90;1.10;;;;;;;22.66;34.39;99859.91;3573848;40;20560;-68
2021/08/07 11:20:11;;;;;;;2.63;1.17;;;;;;;22.60;34.56;99858.09;3576781;40;20049;-68
2021/08/07 11:23:16;;;;;;;1.98;0.80;;;;;;;22.47;35.12;99865.56;3581367;40;20558;-68
2021/08/07 11:25:53;;;;;;;2.03;0.80;;;;;;;22.49;34.89;99854.16;3575525;40;20420;-69
2021/08/07 11:28:22;;;;;;;1.65;0.75;;;;;;;22.43;35.03;99871.81;3581591;40;20041;-68
2021/08/07 11:31:13;;;;;;;3.15;0.90;;;;;;;22.39;34.49;99871.44;3569823;40;20049;-67
2021/08/07 11:33:41;;;;;;;1.35;0.80;;;;;;;22.35;34.71;99869.34;3574519;40;20053;-67
2021/08/07 11:36:13;;;;;;;1.60;0.80;;;;;;;22.34;34.66;99859.28;3571342;40;20083;-67
2021/08/07 11:39:02;;;;;;;2.30;1.10;;;;;;;22.25;34.51;99855.09;3577404;40;20394;-66
2021/08/07 11:41:40;;;;;;;2.50;0.80;;;;;;;22.25;34.90;99852.31;3568426;40;20042;-67
2021/08/07 11:44:08;;;;;;;2.58;0.90;;;;;;;22.20;34.79;99836.28;3573465;40;20049;-67
2021/08/07 11:46:40;;;;;;;1.77;0.90;;;;;;;22.19;35.28;99835.44;3577292;40;20059;-67
2021/08/07 11:49:09;;;;;;;1.48;0.65;;;;;;;22.16;35.22;99838.69;3576221;40;20048;-67
2021/08/07 11:51:39;;;;;;;2.50;0.98;;;;;;;22.19;35.55;99831.81;3572357;40;20049;-67